TimeMST,TemperatureF,Dew PointF,Humidity,Sea Level PressureIn,VisibilityMPH,Wind Direction,Wind SpeedMPH,Gust SpeedMPH,PrecipitationIn,Events,Conditions,WindDirDegrees,DateUTC
12:55 AM,52.0,19.9,28,30.14,10.0,NW,4.6,-,N/A,,Clear,320,2013-01-20 07:55:00
1:55 AM,55.0,16.0,22,30.14,10.0,North,5.8,-,N/A,,Clear,350,2013-01-20 08:55:00
2:55 AM,55.9,12.9,18,30.13,10.0,North,8.1,-,N/A,,Clear,350,2013-01-20 09:55:00
3:55 AM,57.0,12.9,18,30.12,10.0,North,10.4,-,N/A,,Clear,10,2013-01-20 10:55:00
4:55 AM,55.0,12.9,19,30.12,10.0,North,5.8,-,N/A,,Clear,10,2013-01-20 11:55:00
5:55 AM,57.0,10.9,16,30.12,10.0,North,9.2,-,N/A,,Clear,360,2013-01-20 12:55:00
6:55 AM,55.9,12.0,18,30.13,10.0,NNE,9.2,-,N/A,,Clear,20,2013-01-20 13:55:00
7:55 AM,51.1,15.1,24,30.14,10.0,Calm,Calm,-,N/A,,Partly Cloudy,0,2013-01-20 14:55:00
8:55 AM,55.0,16.0,22,30.15,10.0,NE,3.5,-,N/A,,Partly Cloudy,50,2013-01-20 15:55:00
9:55 AM,61.0,16.0,17,30.16,10.0,NNE,5.8,-,N/A,,Partly Cloudy,20,2013-01-20 16:55:00
10:55 AM,66.9,12.9,12,30.16,10.0,North,11.5,-,N/A,,Scattered Clouds,360,2013-01-20 17:55:00
11:55 AM,69.1,12.0,11,30.14,10.0,North,13.8,-,N/A,,Mostly Cloudy,360,2013-01-20 18:55:00
12:55 PM,70.0,12.0,11,30.10,10.0,North,12.7,-,N/A,,Mostly Cloudy,360,2013-01-20 19:55:00
1:55 PM,71.1,12.0,10,30.07,10.0,North,10.4,-,N/A,,Mostly Cloudy,10,2013-01-20 20:55:00
2:55 PM,73.0,14.0,11,30.05,10.0,North,12.7,-,N/A,,Mostly Cloudy,360,2013-01-20 21:55:00
3:55 PM,73.0,14.0,11,30.03,10.0,North,12.7,-,N/A,,Mostly Cloudy,360,2013-01-20 22:55:00
4:55 PM,72.0,14.0,11,30.03,10.0,North,10.4,-,N/A,,Mostly Cloudy,360,2013-01-20 23:55:00
5:55 PM,69.1,15.1,13,30.04,10.0,North,8.1,-,N/A,,Scattered Clouds,350,2013-01-21 00:55:00
6:55 PM,64.9,16.0,15,30.04,10.0,NW,5.8,-,N/A,,Partly Cloudy,320,2013-01-21 01:55:00
7:55 PM,64.9,15.1,15,30.05,10.0,NNW,8.1,-,N/A,,Partly Cloudy,340,2013-01-21 02:55:00
8:55 PM,61.0,15.1,17,30.06,10.0,NW,4.6,-,N/A,,Partly Cloudy,310,2013-01-21 03:55:00
9:55 PM,55.9,18.0,23,30.07,10.0,Calm,Calm,-,N/A,,Scattered Clouds,0,2013-01-21 04:55:00
10:55 PM,53.1,19.9,27,30.08,10.0,Calm,Calm,-,N/A,,Partly Cloudy,0,2013-01-21 05:55:00
11:55 PM,52.0,21.9,31,30.06,10.0,North,3.5,-,N/A,,Partly Cloudy,360,2013-01-21 06:55:00